Time;durP1;ratioP1;P1;durP2;ratioP2;P2;SDS_P1;SDS_P2;PMS_P1;PMS_P2;Temp;Humidity;BMP_temperature;BMP_pressure;BME280_temperature;BME280_humidity;BME280_pressure;Samples;Min_cycle;Max_cycle;Signal;HPM_P1;HPM_P2
2022/11/02 00:00:48;;;;;;;;;;;;;;;;;;4958390;28;19921;-51
2022/11/02 00:03:14;;;;;;;;;;;;;;;;;;4935306;28;19926;-52
2022/11/02 00:05:39;;;;;;;;;;;;;;;;;;4967215;28;20286;-52
2022/11/02 00:08:05;;;;;;;;;;;;;;;;;;4962216;28;19926;-51
2022/11/02 00:10:31;;;;;;;;;;;;;;;;;;4963807;28;20370;-51
2022/11/02 00:12:57;;;;;;;;;;;;;;;;;;4961411;28;19924;-51
2022/11/02 00:15:23;;;;;;;;;;;;;;;;;;4938917;28;20748;-52
2022/11/02 00:17:49;;;;;;;;;;;;;;;;;;4923073;28;20787;-52
2022/11/02 00:20:15;;;;;;;;;;;;;;;;;;4918039;28;19929;-52
2022/11/02 00:22:41;;;;;;;;;;;;;;;;;;4916818;28;19936;-51
2022/11/02 00:25:07;;;;;;;;;;;;;;;;;;4931653;28;19929;-51
2022/11/02 00:27:32;;;;;;;;;;;;;;;;;;4924085;28;19921;-52
2022/11/02 00:29:58;;;;;;;;;;;;;;;;;;4934259;28;19918;-51
2022/11/02 00:32:24;;;;;;;;;;;;;;;;;;4933742;28;19921;-51
2022/11/02 00:34:50;;;;;;;;;;;;;;;;;;4934274;28;19972;-52
2022/11/02 00:37:16;;;;;;;;;;;;;;;;;;4958878;28;19952;-50
2022/11/02 00:39:42;;;;;;;;;;;;;;;;;;4954716;28;19922;-51
2022/11/02 00:42:08;;;;;;;;;;;;;;;;;;4939185;28;19918;-52
2022/11/02 00:44:34;;;;;;;;;;;;;;;;;;4953437;28;19925;-52
2022/11/02 00:47:00;;;;;;;;;;;;;;;;;;4945409;28;19918;-52
2022/11/02 00:49:25;;;;;;;;;;;;;;;;;;4952474;28;19921;-52
2022/11/02 00:51:51;;;;;;;;;;;;;;;;;;4946985;28;20016;-52
2022/11/02 00:54:17;;;;;;;;;;;;;;;;;;4938430;28;20641;-52
2022/11/02 00:56:43;;;;;;;;;;;;;;;;;;4953094;28;20029;-52
2022/11/02 00:59:09;;;;;;;;;;;;;;;;;;4945009;28;20238;-51
2022/11/02 01:01:35;;;;;;;;;;;;;;;;;;4944980;28;19918;-51
2022/11/02 01:04:01;;;;;;;;;;;;;;;;;;4936636;28;20542;-52
2022/11/02 01:06:27;;;;;;;;;;;;;;;;;;4957616;28;19926;-52
2022/11/02 01:08:52;;;;;;;;;;;;;;;;;;4957871;28;19922;-52
2022/11/02 01:11:18;;;;;;;;;;;;;;;;;;4949675;28;20296;-51
2022/11/02 01:13:45;;;;;;;;;;;;;;;;;;4958158;28;19949;-52
2022/11/02 01:16:11;;;;;;;;;;;;;;;;;;4938771;28;19922;-51
2022/11/02 01:18:37;;;;;;;;;;;;;;;;;;4958670;28;20072;-52
2022/11/02 01:21:03;;;;;;;;;;;;;;;;;;4962973;28;19925;-51
2022/11/02 01:23:29;;;;;;;;;;;;;;;;;;4963782;28;20025;-51
2022/11/02 01:25:54;;;;;;;;;;;;;;;;;;4962559;28;19974;-53
2022/11/02 01:28:20;;;;;;;;;;;;;;;;;;4959133;28;19957;-52
2022/11/02 01:30:47;;;;;;;;;;;;;;;;;;4948596;28;20374;-51
2022/11/02 01:33:13;;;;;;;;;;;;;;;;;;4971898;28;19924;-51
2022/11/02 01:35:38;;;;;;;;;;;;;;;;;;4967183;28;19921;-51
2022/11/02 01:38:04;;;;;;;;;;;;;;;;;;4982370;28;19957;-51
2022/11/02 01:40:30;;;;;;;;;;;;;;;;;;4970948;28;20298;-52
2022/11/02 01:42:56;;;;;;;;;;;;;;;;;;4972544;28;19956;-51
2022/11/02 01:45:22;;;;;;;;;;;;;;;;;;4971780;28;19913;-51
2022/11/02 01:47:48;;;;;;;;;;;;;;;;;;4971846;28;21347;-52
2022/11/02 01:50:14;;;;;;;;;;;;;;;;;;4942411;28;19929;-50
2022/11/02 01:52:40;;;;;;;;;;;;;;;;;;4943246;28;19929;-51
2022/11/02 01:55:06;;;;;;;;;;;;;;;;;;4952000;28;19917;-51
2022/11/02 01:57:31;;;;;;;;;;;;;;;;;;4947795;28;19941;-52
2022/11/02 01:59:57;;;;;;;;;;;;;;;;;;4942136;28;20654;-51
2022/11/02 02:07:35;;;;;;;;;;;;;;;;;;3744679;22;20393;-66
2022/11/02 02:10:01;;;;;;;;;;;;;;;;;;5008004;28;20717;-65
2022/11/02 02:12:26;;;;;;;;;;;;;;;;;;5007398;28;19947;-65
2022/11/02 02:14:52;;;;;;;;;;;;;;;;;;5010324;28;19953;-65
2022/11/02 02:17:18;;;;;;;;;;;;;;;;;;4999994;28;19917;-66
2022/11/02 02:19:44;;;;;;;;;;;;;;;;;;5008453;28;19948;-66
2022/11/02 02:22:10;;;;;;;;;;;;;;;;;;4994325;28;19922;-66
2022/11/02 02:24:36;;;;;;;;;;;;;;;;;;5001956;28;20462;-65
2022/11/02 02:27:02;;;;;;;;;;;;;;;;;;5004515;28;19922;-66
2022/11/02 02:29:28;;;;;;;;;;;;;;;;;;5001087;28;19913;-68
2022/11/02 02:31:54;;;;;;;;;;;;;;;;;;5002140;28;21140;-68
2022/11/02 02:34:20;;;;;;;;;;;;;;;;;;5015857;28;19918;-67
2022/11/02 02:36:45;;;;;;;;;;;;;;;;;;5015836;28;19976;-67
2022/11/02 02:39:11;;;;;;;;;;;;;;;;;;5024057;28;20941;-67
2022/11/02 02:41:37;;;;;;;;;;;;;;;;;;5018759;28;19936;-67
2022/11/02 02:44:03;;;;;;;;;;;;;;;;;;5012961;28;19925;-67
2022/11/02 02:46:29;;;;;;;;;;;;;;;;;;5017100;28;19921;-66
2022/11/02 02:48:55;;;;;;;;;;;;;;;;;;5009134;28;19949;-67
2022/11/02 02:51:21;;;;;;;;;;;;;;;;;;5013578;28;19921;-67
2022/11/02 02:53:46;;;;;;;;;;;;;;;;;;5023675;28;19924;-67
2022/11/02 02:56:12;;;;;;;;;;;;;;;;;;5021653;28;19933;-68
2022/11/02 02:58:38;;;;;;;;;;;;;;;;;;5017358;28;19917;-68
2022/11/02 03:01:04;;;;;;;;;;;;;;;;;;5016440;28;19921;-65
2022/11/02 03:03:30;;;;;;;;;;;;;;;;;;5014386;28;20011;-67
2022/11/02 03:05:56;;;;;;;;;;;;;;;;;;5012814;28;19916;-68
2022/11/02 03:08:22;;;;;;;;;;;;;;;;;;4999976;28;20031;-68
2022/11/02 03:10:47;;;;;;;;;;;;;;;;;;4988526;28;19940;-68
2022/11/02 03:13:13;;;;;;;;;;;;;;;;;;4998724;28;19928;-68
2022/11/02 03:15:39;;;;;;;;;;;;;;;;;;4999793;28;19941;-66
2022/11/02 03:18:05;;;;;;;;;;;;;;;;;;5007716;28;19924;-67
2022/11/02 03:20:31;;;;;;;;;;;;;;;;;;5010043;28;19921;-67
2022/11/02 03:22:57;;;;;;;;;;;;;;;;;;5003062;28;19921;-67
2022/11/02 03:25:23;;;;;;;;;;;;;;;;;;5007115;28;20111;-67
2022/11/02 03:27:48;;;;;;;;;;;;;;;;;;5007038;28;20191;-67
2022/11/02 03:30:14;;;;;;;;;;;;;;;;;;5006364;28;19921;-66
2022/11/02 03:32:40;;;;;;;;;;;;;;;;;;5012901;28;19925;-66
2022/11/02 03:35:06;;;;;;;;;;;;;;;;;;5009481;28;20833;-67
2022/11/02 03:37:32;;;;;;;;;;;;;;;;;;5017615;28;20000;-67
2022/11/02 03:39:58;;;;;;;;;;;;;;;;;;5010889;28;19916;-66
2022/11/02 03:42:24;;;;;;;;;;;;;;;;;;5018105;28;19976;-66
2022/11/02 03:44:49;;;;;;;;;;;;;;;;;;5014053;28;19917;-66
2022/11/02 03:47:15;;;;;;;;;;;;;;;;;;5019418;28;19916;-66
2022/11/02 03:49:41;;;;;;;;;;;;;;;;;;5011119;28;20028;-67
2022/11/02 03:52:07;;;;;;;;;;;;;;;;;;4998610;28;19921;-67
2022/11/02 03:54:33;;;;;;;;;;;;;;;;;;5023312;28;19948;-67
2022/11/02 03:56:59;;;;;;;;;;;;;;;;;;5018520;28;19917;-67
2022/11/02 03:59:25;;;;;;;;;;;;;;;;;;5015273;28;19917;-67
2022/11/02 04:01:50;;;;;;;;;;;;;;;;;;5014508;28;19917;-67
2022/11/02 04:04:16;;;;;;;;;;;;;;;;;;5018272;28;20378;-67
2022/11/02 04:06:42;;;;;;;;;;;;;;;;;;4990507;28;19933;-67
2022/11/02 04:09:08;;;;;;;;;;;;;;;;;;5002779;28;19913;-66
2022/11/02 04:14:37;;;;;;;;;;;;;;;;;;5001234;28;19928;-67
2022/11/02 04:19:48;;;;;;;;;;;;;;;;;;5007986;28;19916;-67
2022/11/02 04:27:43;;;;;;;;;;;;;;;;;;5002259;28;20057;-66
2022/11/02 04:30:09;;;;;;;;;;;;;;;;;;4998162;28;20492;-67
2022/11/02 04:35:20;;;;;;;;;;;;;;;;;;5003156;28;19919;-67
2022/11/02 04:40:30;;;;;;;;;;;;;;;;;;5002534;28;19924;-67
2022/11/02 04:42:56;;;;;;;;;;;;;;;;;;4989232;28;19925;-67
2022/11/02 04:45:22;;;;;;;;;;;;;;;;;;4996882;28;19980;-67
2022/11/02 04:47:48;;;;;;;;;;;;;;;;;;5002695;28;20004;-67
2022/11/02 04:50:14;;;;;;;;;;;;;;;;;;5002455;28;19913;-67
2022/11/02 04:52:39;;;;;;;;;;;;;;;;;;5001804;28;19922;-67
2022/11/02 04:55:05;;;;;;;;;;;;;;;;;;4985975;28;19928;-66
2022/11/02 04:57:31;;;;;;;;;;;;;;;;;;4999336;28;19928;-67
2022/11/02 04:59:57;;;;;;;;;;;;;;;;;;5004253;28;19921;-67
2022/11/02 05:02:23;;;;;;;;;;;;;;;;;;5000108;28;19922;-67
2022/11/02 05:04:49;;;;;;;;;;;;;;;;;;4998695;28;19931;-67
2022/11/02 05:07:15;;;;;;;;;;;;;;;;;;5005523;28;19921;-67
2022/11/02 05:09:44;;;;;;;;;;;;;;;;;;5012356;28;19917;-67
2022/11/02 05:12:09;;;;;;;;;;;;;;;;;;5003678;28;20414;-67
2022/11/02 05:14:35;;;;;;;;;;;;;;;;;;4996696;28;19913;-67
2022/11/02 05:17:01;;;;;;;;;;;;;;;;;;4996807;28;20510;-67
2022/11/02 05:19:27;;;;;;;;;;;;;;;;;;4988496;28;25463;-67
2022/11/02 05:21:53;;;;;;;;;;;;;;;;;;4993039;28;20004;-67
2022/11/02 05:24:19;;;;;;;;;;;;;;;;;;4997498;28;20462;-66
2022/11/02 05:26:45;;;;;;;;;;;;;;;;;;4984928;28;19928;-67
2022/11/02 05:29:10;;;;;;;;;;;;;;;;;;4980036;28;20329;-67
2022/11/02 05:31:36;;;;;;;;;;;;;;;;;;4978937;28;19917;-67
2022/11/02 05:34:02;;;;;;;;;;;;;;;;;;4977373;28;20718;-66
2022/11/02 05:36:28;;;;;;;;;;;;;;;;;;4975646;28;19920;-67
2022/11/02 05:38:54;;;;;;;;;;;;;;;;;;4983709;28;19922;-67
2022/11/02 05:41:20;;;;;;;;;;;;;;;;;;4988409;28;19921;-67
2022/11/02 05:43:46;;;;;;;;;;;;;;;;;;4996543;28;20009;-66
2022/11/02 05:46:14;;;;;;;;;;;;;;;;;;4973267;28;19929;-66
2022/11/02 05:48:40;;;;;;;;;;;;;;;;;;4981606;28;20190;-64
2022/11/02 05:51:06;;;;;;;;;;;;;;;;;;4991624;28;19925;-67
2022/11/02 05:53:33;;;;;;;;;;;;;;;;;;4967612;28;21733;-67
2022/11/02 05:55:58;;;;;;;;;;;;;;;;;;4980879;28;19921;-65
2022/11/02 05:58:24;;;;;;;;;;;;;;;;;;4985687;28;19922;-65
2022/11/02 06:00:50;;;;;;;;;;;;;;;;;;4979395;28;19929;-66
2022/11/02 06:03:16;;;;;;;;;;;;;;;;;;4988195;28;19921;-68
2022/11/02 06:05:42;;;;;;;;;;;;;;;;;;4975755;28;19968;-66
2022/11/02 06:08:08;;;;;;;;;;;;;;;;;;4979482;28;19922;-66
2022/11/02 06:10:34;;;;;;;;;;;;;;;;;;4975554;28;19921;-63
2022/11/02 06:13:00;;;;;;;;;;;;;;;;;;4970403;28;19918;-65
2022/11/02 06:15:26;;;;;;;2.23;2.13;;;;;;;;;;4977551;28;20212;-65
2022/11/02 06:17:52;;;;;;;2.30;2.20;;;;;;;;;;4995916;28;20282;-67
2022/11/02 06:20:18;;;;;;;2.30;2.20;;;;;;;;;;5006052;28;20234;-65
2022/11/02 06:22:44;;;;;;;2.00;1.90;;;;;;;;;;5013342;28;20225;-67
2022/11/02 06:25:10;;;;;;;2.20;2.10;;;;;;;;;;5010387;28;20236;-65
2022/11/02 06:27:36;;;;;;;2.00;1.90;;;;;;;;;;5017448;28;20213;-66
2022/11/02 06:30:02;;;;;;;2.33;2.23;;;;;;;;;;5013770;28;20248;-67
2022/11/02 06:32:28;;;;;;;2.20;2.10;;;;;;;;;;5008814;28;20257;-65
2022/11/02 06:34:54;;;;;;;2.00;1.90;;;;;;;;;;4994935;28;20291;-64
2022/11/02 06:37:21;;;;;;;2.40;2.30;;;;;;;;;;5014569;28;20232;-64
2022/11/02 06:39:47;;;;;;;2.20;2.10;;;;;;;;;;5010728;28;20252;-66
2022/11/02 06:42:13;;;;;;;1.60;1.60;;;;;;;;;;4996326;28;20252;-66
2022/11/02 06:44:39;;;;;;;2.00;1.90;;;;;;;;;;5007268;28;20530;-66
2022/11/02 06:47:05;;;;;;;1.90;1.80;;;;;;;;;;5005057;28;21201;-66
2022/11/02 06:49:31;;;;;;;2.10;2.00;;;;;;;;;;4998212;28;20236;-65
2022/11/02 06:51:57;;;;;;;2.10;2.00;;;;;;;;;;5003848;28;20594;-67
2022/11/02 06:54:23;;;;;;;2.17;2.07;;;;;;;;;;4998126;28;20229;-64
2022/11/02 06:56:49;;;;;;;2.20;2.10;;;;;;;;;;5006173;28;20283;-65
2022/11/02 06:59:15;;;;;;;2.07;1.97;;;;;;;;;;5003403;28;20229;-66
2022/11/02 07:01:41;;;;;;;2.20;2.10;;;;;;;;;;5002908;28;20225;-65
2022/11/02 07:04:07;;;;;;;2.00;1.90;;;;;;;;;;5004805;28;20225;-66
2022/11/02 07:06:33;;;;;;;2.00;1.90;;;;;;;;;;5010357;28;20711;-66
2022/11/02 07:08:59;;;;;;;1.90;1.80;;;;;;;;;;5008306;28;20705;-66
2022/11/02 07:11:25;;;;;;;1.70;1.70;;;;;;;;;;5001175;28;20866;-66
2022/11/02 07:13:51;;;;;;;2.00;1.90;;;;;;;;;;5004568;28;20233;-65
2022/11/02 07:16:17;;;;;;;2.00;1.90;;;;;;;;;;4984551;28;20218;-66
2022/11/02 07:18:43;;;;;;;2.00;1.90;;;;;;;;;;4999721;28;20228;-65
2022/11/02 07:21:10;;;;;;;1.97;1.87;;;;;;;;;;5001192;28;20214;-66
2022/11/02 07:23:36;;;;;;;2.13;2.03;;;;;;;;;;5005432;28;20232;-66
2022/11/02 07:26:02;;;;;;;2.00;1.90;;;;;;;;;;4997513;28;20236;-66
2022/11/02 07:28:28;;;;;;;1.90;1.80;;;;;;;;;;4986096;28;20234;-66
2022/11/02 07:30:54;;;;;;;2.10;2.00;;;;;;;;;;5001533;28;20214;-65
2022/11/02 07:33:20;;;;;;;2.07;1.97;;;;;;;;;;4990047;28;20225;-66
2022/11/02 07:35:46;;;;;;;1.90;1.80;;;;;;;;;;4983812;28;20237;-65
2022/11/02 07:38:12;;;;;;;2.00;1.90;;;;;;;;;;5001257;28;20226;-66
2022/11/02 07:40:38;;;;;;;1.90;1.80;;;;;;;;;;5000484;28;20229;-66
2022/11/02 07:43:04;;;;;;;2.10;2.00;;;;;;;;;;5006120;28;20303;-65
2022/11/02 07:45:30;;;;;;;2.00;1.90;;;;;;;;;;5003688;28;20221;-66
2022/11/02 07:47:56;;;;;;;2.07;1.97;;;;;;;;;;5004681;28;20229;-67
2022/11/02 07:50:22;;;;;;;1.97;1.87;;;;;;;;;;5004716;28;20221;-66
2022/11/02 07:52:49;;;;;;;1.90;1.80;;;;;;;;;;5004657;28;20249;-66
2022/11/02 07:55:15;;;;;;;1.63;1.63;;;;;;;;;;5005719;28;20261;-66
2022/11/02 07:57:42;;;;;;;2.00;1.90;;;;;;;;;;4999147;28;20294;-65
2022/11/02 08:00:08;;;;;;;1.80;1.70;;;;;;;;;;4994896;28;20217;-65
2022/11/02 08:02:34;;;;;;;1.90;1.80;;;;;;;;;;5000360;28;20248;-65
2022/11/02 08:05:00;;;;;;;1.90;1.80;;;;;;;;;;5006122;28;20680;-66
2022/11/02 08:07:26;;;;;;;2.20;2.10;;;;;;;;;;5001921;28;20265;-66
2022/11/02 08:09:52;;;;;;;2.50;2.40;;;;;;;;;;5004835;28;20773;-66
2022/11/02 08:12:18;;;;;;;2.40;2.30;;;;;;;;;;5002585;28;20233;-66
2022/11/02 08:14:44;;;;;;;1.50;1.50;;;;;;;;;;5005143;28;20235;-65
2022/11/02 08:17:10;;;;;;;1.47;1.47;;;;;;;;;;5003351;28;20300;-66
2022/11/02 08:19:36;;;;;;;2.07;1.97;;;;;;;;;;5002047;28;20685;-66
2022/11/02 08:22:02;;;;;;;1.43;1.43;;;;;;;;;;4998376;28;20378;-66
2022/11/02 08:24:28;;;;;;;1.77;1.70;;;;;;;;;;5001106;28;20758;-67
2022/11/02 08:26:54;;;;;;;1.20;1.20;;;;;;;;;;5004553;28;20686;-65
2022/11/02 08:29:20;;;;;;;2.13;2.03;;;;;;;;;;5003297;28;20232;-66
2022/11/02 08:31:47;;;;;;;2.40;2.30;;;;;;;;;;5009178;28;20644;-65
2022/11/02 08:34:13;;;;;;;2.63;2.53;;;;;;;;;;5006782;28;20230;-66
2022/11/02 08:36:39;;;;;;;2.17;2.07;;;;;;;;;;4996921;28;20246;-66
2022/11/02 08:39:05;;;;;;;1.37;1.37;;;;;;;;;;5010146;28;20236;-66
2022/11/02 08:41:31;;;;;;;2.00;1.90;;;;;;;;;;5006151;28;20225;-66
2022/11/02 08:43:57;;;;;;;2.30;2.20;;;;;;;;;;5003478;28;20232;-66
2022/11/02 08:46:23;;;;;;;2.43;2.33;;;;;;;;;;5002357;28;20248;-66
2022/11/02 08:48:49;;;;;;;2.30;2.20;;;;;;;;;;5004532;28;20825;-65
2022/11/02 08:51:15;;;;;;;2.63;2.53;;;;;;;;;;5006377;28;20225;-66
2022/11/02 08:53:41;;;;;;;2.60;2.50;;;;;;;;;;5003404;28;20695;-66
2022/11/02 08:56:07;;;;;;;2.23;2.13;;;;;;;;;;5003144;28;20272;-66
2022/11/02 08:58:33;;;;;;;2.10;2.00;;;;;;;;;;5006267;28;20229;-65
2022/11/02 09:00:59;;;;;;;1.40;1.40;;;;;;;;;;5002948;28;20217;-66
2022/11/02 09:03:27;;;;;;;2.10;2.00;;;;;;;;;;4995605;28;20283;-66
2022/11/02 09:05:55;;;;;;;2.00;1.90;;;;;;;;;;5007211;28;20316;-66
2022/11/02 09:08:21;;;;;;;2.50;2.40;;;;;;;;;;4998160;28;20296;-66
2022/11/02 09:10:49;;;;;;;2.20;2.10;;;;;;;;;;5003731;28;20293;-66
2022/11/02 09:13:17;;;;;;;2.47;2.37;;;;;;;;;;5004247;28;20220;-66
2022/11/02 09:15:43;;;;;;;3.07;2.97;;;;;;;;;;5001979;28;20528;-66
2022/11/02 09:18:09;;;;;;;2.90;2.80;;;;;;;;;;4992522;28;20517;-67
2022/11/02 09:20:35;;;;;;;3.10;2.97;;;;;;;;;;5001247;28;20743;-66
2022/11/02 09:23:01;;;;;;;2.40;2.30;;;;;;;;;;5003617;28;20746;-67
2022/11/02 09:25:27;;;;;;;2.40;2.30;;;;;;;;;;5001184;28;20210;-66
2022/11/02 09:27:53;;;;;;;2.20;2.10;;;;;;;;;;5004639;28;20256;-66
2022/11/02 09:30:19;;;;;;;2.20;2.10;;;;;;;;;;5023235;28;20297;-67
2022/11/02 09:32:52;;;;;;;2.60;2.50;;;;;;;;;;5006232;28;20244;-67
2022/11/02 09:35:18;;;;;;;2.50;2.40;;;;;;;;;;4999455;28;20228;-67
2022/11/02 09:37:44;;;;;;;2.20;2.10;;;;;;;;;;4998938;28;20222;-66
2022/11/02 09:40:10;;;;;;;2.10;2.00;;;;;;;;;;5003002;28;20221;-67
2022/11/02 09:42:44;;;;;;;2.77;2.67;;;;;;;;;;4981273;28;20602;-67
2022/11/02 09:45:14;;;;;;;1.92;1.83;;;;;;;;;;4983294;28;20237;-67
2022/11/02 09:47:44;;;;;;;1.20;1.20;;;;;;;;;;4988021;28;20225;-67
2022/11/02 09:50:13;;;;;;;2.70;2.60;;;;;;;;;;4982225;28;20249;-67
2022/11/02 09:52:39;;;;;;;2.80;2.70;;;;;;;;;;4983593;28;20229;-67
2022/11/02 09:55:06;;;;;;;2.20;2.10;;;;;;;;;;4980284;28;20252;-66
2022/11/02 09:57:32;;;;;;;2.25;2.15;;;;;;;;;;4982198;28;20218;-66
2022/11/02 09:59:58;;;;;;;2.22;2.13;;;;;;;;;;5004630;28;20687;-67
2022/11/02 10:02:28;;;;;;;2.05;1.95;;;;;;;;;;4998331;28;20399;-67
2022/11/02 10:05:01;;;;;;;1.95;1.85;;;;;;;;;;4998736;28;20226;-66
2022/11/02 10:07:27;;;;;;;2.10;2.00;;;;;;;;;;5006876;28;20240;-66
2022/11/02 10:09:57;;;;;;;2.22;2.13;;;;;;;;;;5000351;28;20221;-66
2022/11/02 10:12:26;;;;;;;2.10;2.00;;;;;;;;;;4980410;28;20272;-66
2022/11/02 10:15:03;;;;;;;2.35;2.25;;;;;;;;;;5006034;28;20221;-66
2022/11/02 10:17:30;;;;;;;1.90;1.80;;;;;;;;;;4987813;28;20231;-65
2022/11/02 10:19:56;;;;;;;2.00;1.90;;;;;;;;;;5000608;28;20239;-66
2022/11/02 10:22:24;;;;;;;1.60;1.60;;;;;;;;;;5009613;28;20222;-66
2022/11/02 10:24:50;;;;;;;1.70;1.70;;;;;;;;;;4978822;28;20217;-66
2022/11/02 10:27:26;;;;;;;1.45;1.45;;;;;;;;;;4999320;28;20288;-66
2022/11/02 10:29:58;;;;;;;1.50;1.50;;;;;;;;;;4999747;28;20233;-65
2022/11/02 10:32:24;;;;;;;1.50;1.50;;;;;;;;;;4980568;28;20217;-66
2022/11/02 10:34:50;;;;;;;1.33;1.33;;;;;;;;;;4980844;28;20332;-66
2022/11/02 10:37:31;;;;;;;1.42;1.42;;;;;;;;;;5004483;28;20217;-65
2022/11/02 10:40:03;;;;;;;1.30;1.30;;;;;;;;;;4997952;28;20214;-66
2022/11/02 10:42:48;;;;;;;1.30;1.30;;;;;;;;;;4997338;28;20253;-66
2022/11/02 10:45:23;;;;;;;1.50;1.50;;;;;;;;;;4979238;28;20240;-66
2022/11/02 10:47:55;;;;;;;1.90;1.80;;;;;;;;;;5001304;28;20229;-66
2022/11/02 10:50:40;;;;;;;1.10;1.10;;;;;;;;;;5003528;28;20225;-66
2022/11/02 10:53:08;;;;;;;1.00;1.00;;;;;;;;;;4994893;28;20285;-66
2022/11/02 10:55:36;;;;;;;1.00;1.00;;;;;;;;;;4982356;28;20253;-65
2022/11/02 10:58:03;;;;;;;1.20;1.20;;;;;;;;;;4986726;28;20281;-66
2022/11/02 11:00:33;;;;;;;1.10;1.10;;;;;;;;;;5002173;28;20206;-66
2022/11/02 11:03:06;;;;;;;1.20;1.20;;;;;;;;;;4994999;28;20288;-66
2022/11/02 11:05:32;;;;;;;1.05;1.05;;;;;;;;;;4994021;28;20225;-65
2022/11/02 11:07:59;;;;;;;0.90;0.90;;;;;;;;;;4985554;28;20229;-66
2022/11/02 11:10:26;;;;;;;1.00;1.00;;;;;;;;;;4993024;28;20260;-66
2022/11/02 11:12:52;;;;;;;1.00;1.00;;;;;;;;;;4996389;28;20213;-66
2022/11/02 11:15:25;;;;;;;0.90;0.90;;;;;;;;;;4983484;28;20228;-66
2022/11/02 11:17:51;;;;;;;1.00;1.00;;;;;;;;;;4987311;28;20604;-66
2022/11/02 11:20:30;;;;;;;1.10;1.10;;;;;;;;;;5003426;28;20217;-65
2022/11/02 11:23:14;;;;;;;1.00;1.00;;;;;;;;;;4996329;28;20229;-66
2022/11/02 11:25:40;;;;;;;1.00;1.00;;;;;;;;;;4994849;28;20210;-64
2022/11/02 11:28:20;;;;;;;2.00;1.90;;;;;;;;;;5004066;28;20564;-65
2022/11/02 11:30:46;;;;;;;2.00;1.90;;;;;;;;;;5001907;28;20805;-65
2022/11/02 11:33:15;;;;;;;2.15;2.05;;;;;;;;;;5003424;28;20221;-65
2022/11/02 11:35:42;;;;;;;1.00;1.00;;;;;;;;;;4987541;28;20327;-66
2022/11/02 11:38:09;;;;;;;1.00;1.00;;;;;;;;;;4982394;28;20256;-66
2022/11/02 11:40:36;;;;;;;1.10;1.10;;;;;;;;;;4984699;28;20289;-66
2022/11/02 11:43:01;;;;;;;1.10;1.10;;;;;;;;;;5004824;28;20280;-64
2022/11/02 11:45:28;;;;;;;1.27;1.27;;;;;;;;;;4986564;28;20293;-64
2022/11/02 11:47:55;;;;;;;1.20;1.20;;;;;;;;;;5005200;28;20281;-65
2022/11/02 11:50:21;;;;;;;1.10;1.10;;;;;;;;;;5002796;28;20210;-65
2022/11/02 11:52:47;;;;;;;1.10;1.10;;;;;;;;;;4994562;28;20225;-65
2022/11/02 11:55:23;;;;;;;1.10;1.10;;;;;;;;;;5002333;28;21969;-66
2022/11/02 11:58:03;;;;;;;1.40;1.40;;;;;;;;;;5002948;28;20219;-65
2022/11/02 12:00:29;;;;;;;1.00;1.00;;;;;;;;;;4985929;28;20230;-65
2022/11/02 12:03:09;;;;;;;1.20;1.20;;;;;;;;;;5001964;28;20639;-65
2022/11/02 12:05:38;;;;;;;1.10;1.10;;;;;;;;;;5007055;28;20237;-64
2022/11/02 12:08:04;;;;;;;1.20;1.20;;;;;;;;;;4986569;28;20246;-65
2022/11/02 12:10:35;;;;;;;1.20;1.20;;;;;;;;;;4997604;28;20226;-64
2022/11/02 12:13:05;;;;;;;1.10;1.10;;;;;;;;;;4979621;28;20523;-65
2022/11/02 12:15:35;;;;;;;1.10;1.10;;;;;;;;;;4979180;28;20563;-66
2022/11/02 12:18:01;;;;;;;1.30;1.30;;;;;;;;;;4973563;28;20282;-66
2022/11/02 12:20:30;;;;;;;1.10;1.10;;;;;;;;;;4988266;28;20753;-66
2022/11/02 12:22:59;;;;;;;1.00;1.00;;;;;;;;;;4993853;28;20525;-64
2022/11/02 12:25:45;;;;;;;1.20;1.20;;;;;;;;;;5000037;28;20226;-65
2022/11/02 12:28:23;;;;;;;1.30;1.30;;;;;;;;;;5000282;28;20610;-66
2022/11/02 12:30:50;;;;;;;1.30;1.30;;;;;;;;;;4964100;28;20236;-66
2022/11/02 12:33:18;;;;;;;1.40;1.40;;;;;;;;;;4989956;28;20285;-66
2022/11/02 12:35:49;;;;;;;1.45;1.45;;;;;;;;;;4975890;28;20381;-66
2022/11/02 12:38:34;;;;;;;1.30;1.30;;;;;;;;;;5003140;28;20241;-65
2022/11/02 12:41:10;;;;;;;1.30;1.30;;;;;;;;;;4981813;28;20301;-65
2022/11/02 12:43:46;;;;;;;1.50;1.50;;;;;;;;;;5004795;28;20237;-65
2022/11/02 12:46:18;;;;;;;1.70;1.70;;;;;;;;;;4977160;28;20657;-65
2022/11/02 12:48:47;;;;;;;1.10;1.10;;;;;;;;;;4986625;28;20229;-66
2022/11/02 12:51:18;;;;;;;1.33;1.33;;;;;;;;;;4992174;28;20249;-65
2022/11/02 12:53:51;;;;;;;1.50;1.50;;;;;;;;;;4989892;28;20249;-67
2022/11/02 12:56:21;;;;;;;1.60;1.60;;;;;;;;;;4983696;28;20226;-66
2022/11/02 12:58:47;;;;;;;1.50;1.50;;;;;;;;;;4968489;28;20927;-66
2022/11/02 13:01:17;;;;;;;1.50;1.50;;;;;;;;;;4979250;28;20226;-67
2022/11/02 13:03:42;;;;;;;2.00;1.90;;;;;;;;;;4979561;28;20253;-66
2022/11/02 13:06:10;;;;;;;1.60;1.60;;;;;;;;;;4996924;28;20299;-66
2022/11/02 13:08:47;;;;;;;1.50;1.50;;;;;;;;;;4961691;28;20240;-66
2022/11/02 13:11:18;;;;;;;1.52;1.52;;;;;;;;;;4964979;28;20226;-66
2022/11/02 13:13:49;;;;;;;1.60;1.60;;;;;;;;;;4975687;28;20221;-67
2022/11/02 13:16:15;;;;;;;1.63;1.63;;;;;;;;;;4998430;28;20585;-66
2022/11/02 13:18:46;;;;;;;1.60;1.60;;;;;;;;;;4990484;28;20329;-66
2022/11/02 13:21:13;;;;;;;1.40;1.40;;;;;;;;;;4975299;28;20736;-66
2022/11/02 13:23:46;;;;;;;1.77;1.70;;;;;;;;;;4977091;28;20355;-67
2022/11/02 13:26:14;;;;;;;1.50;1.50;;;;;;;;;;4980221;28;20239;-66
2022/11/02 13:28:44;;;;;;;1.50;1.50;;;;;;;;;;4982705;28;20704;-67
2022/11/02 13:31:11;;;;;;;1.60;1.60;;;;;;;;;;4977321;28;20709;-66
2022/11/02 13:33:44;;;;;;;1.50;1.50;;;;;;;;;;4994243;28;20241;-67
2022/11/02 13:36:10;;;;;;;1.48;1.48;;;;;;;;;;4971326;28;20321;-67
2022/11/02 13:38:46;;;;;;;1.42;1.42;;;;;;;;;;4985996;28;20220;-67
2022/11/02 13:41:12;;;;;;;1.50;1.50;;;;;;;;;;4973410;28;20708;-66
2022/11/02 13:43:41;;;;;;;1.50;1.50;;;;;;;;;;4993994;28;20236;-66
2022/11/02 13:46:16;;;;;;;1.50;1.50;;;;;;;;;;4984439;28;20234;-66
2022/11/02 13:48:47;;;;;;;1.60;1.60;;;;;;;;;;4982991;28;20241;-66
2022/11/02 13:51:18;;;;;;;1.40;1.40;;;;;;;;;;4970143;28;20237;-66
2022/11/02 13:53:47;;;;;;;1.40;1.40;;;;;;;;;;4991780;28;20229;-67
2022/11/02 13:56:20;;;;;;;1.30;1.30;;;;;;;;;;4987542;28;20228;-66
2022/11/02 13:58:47;;;;;;;1.50;1.50;;;;;;;;;;4985472;28;20320;-66
2022/11/02 14:01:15;;;;;;;1.60;1.60;;;;;;;;;;4990337;28;20550;-66
2022/11/02 14:03:48;;;;;;;1.60;1.60;;;;;;;;;;4992286;28;20885;-66
2022/11/02 14:06:15;;;;;;;1.40;1.40;;;;;;;;;;4979755;28;20663;-66
2022/11/02 14:08:41;;;;;;;1.55;1.55;;;;;;;;;;4994408;28;20237;-66
2022/11/02 14:11:10;;;;;;;1.30;1.30;;;;;;;;;;4995136;28;20703;-66
2022/11/02 14:14:03;;;;;;;0.80;0.80;;;;;;;;;;4993555;28;20660;-66
2022/11/02 14:16:44;;;;;;;1.03;1.03;;;;;;;;;;4992036;28;20228;-66
2022/11/02 14:19:19;;;;;;;1.40;1.40;;;;;;;;;;5008823;28;20221;-67
2022/11/02 14:22:04;;;;;;;1.40;1.40;;;;;;;;;;4972360;28;20290;-64
2022/11/02 14:24:33;;;;;;;1.00;1.00;;;;;;;;;;4986851;28;20316;-66
2022/11/02 14:27:00;;;;;;;1.40;1.40;;;;;;;;;;4989723;28;20234;-66
2022/11/02 14:29:37;;;;;;;1.50;1.50;;;;;;;;;;4989339;28;20763;-66
2022/11/02 14:32:04;;;;;;;1.40;1.40;;;;;;;;;;4986849;28;20213;-67
2022/11/02 14:34:56;;;;;;;1.43;1.43;;;;;;;;;;4974477;28;20594;-67
2022/11/02 14:37:27;;;;;;;1.40;1.40;;;;;;;;;;4955043;28;20881;-65
2022/11/02 14:39:58;;;;;;;1.73;1.70;;;;;;;;;;4970990;28;21931;-67
2022/11/02 14:42:32;;;;;;;1.40;1.40;;;;;;;;;;4995728;28;20359;-67
2022/11/02 14:45:18;;;;;;;0.80;0.80;;;;;;;;;;4975895;28;20225;-67
2022/11/02 14:47:44;;;;;;;1.60;1.60;;;;;;;;;;4993784;28;20693;-64
2022/11/02 14:50:10;;;;;;;1.60;1.60;;;;;;;;;;4983410;28;20274;-65
2022/11/02 14:52:36;;;;;;;1.50;1.50;;;;;;;;;;4988558;28;20256;-64
2022/11/02 14:55:08;;;;;;;1.57;1.57;;;;;;;;;;4965925;28;20225;-65
2022/11/02 14:57:35;;;;;;;1.50;1.50;;;;;;;;;;4988938;28;20229;-67
2022/11/02 15:00:02;;;;;;;1.60;1.60;;;;;;;;;;4970620;28;20233;-64
2022/11/02 15:02:28;;;;;;;1.90;1.80;;;;;;;;;;4984956;28;20387;-67
2022/11/02 15:04:55;;;;;;;1.60;1.60;;;;;;;;;;4971035;28;20710;-66
2022/11/02 15:07:22;;;;;;;1.40;1.40;;;;;;;;;;4958287;28;20237;-66
2022/11/02 15:09:53;;;;;;;1.47;1.47;;;;;;;;;;4952192;28;20237;-66
2022/11/02 15:12:24;;;;;;;1.40;1.40;;;;;;;;;;4962552;28;21249;-65
2022/11/02 15:15:00;;;;;;;1.00;1.00;;;;;;;;;;4977719;28;20225;-64
2022/11/02 15:17:26;;;;;;;1.17;1.17;;;;;;;;;;4976675;28;20221;-66
2022/11/02 15:19:53;;;;;;;1.20;1.20;;;;;;;;;;4987056;28;20222;-64
2022/11/02 15:22:28;;;;;;;1.10;1.10;;;;;;;;;;4959142;28;20233;-65
2022/11/02 15:24:54;;;;;;;1.20;1.20;;;;;;;;;;4982197;28;20228;-65
2022/11/02 15:27:20;;;;;;;1.10;1.10;;;;;;;;;;4964562;28;20285;-65
2022/11/02 15:29:46;;;;;;;1.03;1.03;;;;;;;;;;4974220;28;20294;-66
2022/11/02 15:32:15;;;;;;;1.10;1.10;;;;;;;;;;4976228;28;20222;-66
2022/11/02 15:34:48;;;;;;;1.20;1.20;;;;;;;;;;4986741;28;20225;-65
2022/11/02 15:37:16;;;;;;;1.10;1.10;;;;;;;;;;4974433;28;20246;-65
2022/11/02 15:39:47;;;;;;;1.23;1.23;;;;;;;;;;4958398;28;20309;-65
2022/11/02 15:42:33;;;;;;;1.90;1.80;;;;;;;;;;4969302;28;20304;-66
2022/11/02 15:44:59;;;;;;;2.47;2.37;;;;;;;;;;4967241;28;20656;-66
2022/11/02 15:47:25;;;;;;;2.10;2.00;;;;;;;;;;4959489;28;21244;-65
2022/11/02 15:50:00;;;;;;;1.70;1.67;;;;;;;;;;4973434;28;20228;-65
2022/11/02 15:52:41;;;;;;;2.10;2.00;;;;;;;;;;4967855;28;20251;-66